Time;durP1;ratioP1;P1;durP2;ratioP2;P2;SDS_P1;SDS_P2;PMS_P1;PMS_P2;Temp;Humidity;BMP_temperature;BMP_pressure;BME280_temperature;BME280_humidity;BME280_pressure;Samples;Min_cycle;Max_cycle;Signal;HPM_P1;HPM_P2
2023/03/12 00:00:30;;;;;;;5.38;1.80;;;;;;;;;;4992383;28;20105;-67
2023/03/12 00:02:56;;;;;;;7.13;2.53;;;;;;;;;;4992693;28;20038;-67
2023/03/12 00:05:24;;;;;;;11.68;2.60;;;;;;;;;;4992938;28;20034;-67
2023/03/12 00:07:51;;;;;;;7.75;2.35;;;;;;;;;;4991511;28;20554;-67
2023/03/12 00:10:17;;;;;;;6.43;1.73;;;;;;;;;;4994723;28;20018;-67
2023/03/12 00:12:43;;;;;;;7.40;1.85;;;;;;;;;;4993736;28;20058;-67
2023/03/12 00:15:09;;;;;;;7.63;2.30;;;;;;;;;;4994527;28;20061;-67
2023/03/12 00:17:35;;;;;;;6.18;2.10;;;;;;;;;;4995442;28;20038;-66
2023/03/12 00:20:01;;;;;;;5.97;2.22;;;;;;;;;;4991656;28;20086;-67
2023/03/12 00:22:27;;;;;;;6.07;2.25;;;;;;;;;;4994746;28;20472;-66
2023/03/12 00:24:54;;;;;;;7.97;2.67;;;;;;;;;;4995793;28;20029;-66
2023/03/12 00:27:21;;;;;;;8.30;3.17;;;;;;;;;;4995360;28;20118;-66
2023/03/12 00:29:47;;;;;;;7.82;2.67;;;;;;;;;;4995640;28;20203;-67
2023/03/12 00:32:13;;;;;;;8.93;2.25;;;;;;;;;;4993808;28;20049;-67
2023/03/12 00:34:38;;;;;;;7.55;2.60;;;;;;;;;;4977992;28;20026;-67
2023/03/12 00:37:04;;;;;;;5.10;2.08;;;;;;;;;;4995343;28;20054;-66
2023/03/12 00:39:31;;;;;;;9.38;2.95;;;;;;;;;;4995272;28;20034;-67
2023/03/12 00:41:56;;;;;;;9.20;3.00;;;;;;;;;;4994205;28;20034;-66
2023/03/12 00:44:22;;;;;;;8.40;2.83;;;;;;;;;;4977772;28;20499;-67
2023/03/12 00:46:48;;;;;;;10.27;3.40;;;;;;;;;;4993938;28;20034;-66
2023/03/12 00:49:13;;;;;;;9.20;3.08;;;;;;;;;;4977458;28;20026;-67
2023/03/12 00:51:39;;;;;;;10.70;3.40;;;;;;;;;;4990508;28;20038;-66
2023/03/12 00:54:05;;;;;;;12.13;3.35;;;;;;;;;;4977542;28;20033;-66
2023/03/12 00:56:31;;;;;;;7.38;3.00;;;;;;;;;;4994852;28;20492;-67
2023/03/12 00:58:56;;;;;;;9.80;3.60;;;;;;;;;;4994777;28;20018;-66
2023/03/12 01:01:23;;;;;;;10.95;3.70;;;;;;;;;;4977431;28;20054;-66
2023/03/12 01:03:50;;;;;;;15.63;4.38;;;;;;;;;;4977604;28;20026;-67
2023/03/12 01:06:16;;;;;;;14.27;4.53;;;;;;;;;;4993639;28;20514;-67
2023/03/12 01:08:42;;;;;;;11.13;3.67;;;;;;;;;;4977071;28;20105;-67
2023/03/12 01:11:15;;;;;;;8.95;3.50;;;;;;;;;;4977723;28;20040;-67
2023/03/12 01:13:41;;;;;;;9.07;3.78;;;;;;;;;;5009745;28;20416;-66
2023/03/12 01:16:07;;;;;;;9.00;3.50;;;;;;;;;;4993354;28;20037;-67
2023/03/12 01:18:32;;;;;;;11.10;3.75;;;;;;;;;;4976803;28;20070;-67
2023/03/12 01:20:58;;;;;;;7.95;2.92;;;;;;;;;;4975909;28;20080;-66
2023/03/12 01:23:24;;;;;;;7.38;2.85;;;;;;;;;;4977108;28;20044;-67
2023/03/12 01:25:51;;;;;;;10.27;2.75;;;;;;;;;;4977275;28;20081;-67
2023/03/12 01:28:17;;;;;;;20.98;2.45;;;;;;;;;;4976703;28;20045;-67
2023/03/12 01:30:43;;;;;;;4.88;2.10;;;;;;;;;;4993534;28;20053;-67
2023/03/12 01:33:09;;;;;;;6.50;2.00;;;;;;;;;;4976628;28;20039;-67
2023/03/12 01:35:39;;;;;;;4.45;1.98;;;;;;;;;;4994617;28;20029;-66
2023/03/12 01:38:12;;;;;;;7.72;2.30;;;;;;;;;;4976677;28;20455;-67
2023/03/12 01:40:38;;;;;;;7.18;2.10;;;;;;;;;;4977002;28;20038;-67
2023/03/12 01:43:31;;;;;;;4.60;1.65;;;;;;;;;;4994358;28;20034;-67
2023/03/12 01:46:22;;;;;;;4.97;2.05;;;;;;;;;;4976949;28;20061;-67
2023/03/12 01:48:56;;;;;;;5.65;1.92;;;;;;;;;;4992656;28;20444;-67
2023/03/12 01:51:26;;;;;;;4.75;1.90;;;;;;;;;;4976680;28;20042;-66
2023/03/12 01:53:57;;;;;;;5.95;1.70;;;;;;;;;;4992900;28;20030;-66
2023/03/12 01:56:25;;;;;;;6.05;2.20;;;;;;;;;;4992823;28;20091;-67
2023/03/12 01:58:54;;;;;;;6.78;2.20;;;;;;;;;;4976454;28;20038;-67
2023/03/12 02:01:21;;;;;;;7.07;2.45;;;;;;;;;;4976955;28;20046;-67
2023/03/12 02:03:51;;;;;;;4.55;2.08;;;;;;;;;;4976765;28;20018;-67
2023/03/12 02:06:29;;;;;;;4.82;2.10;;;;;;;;;;4992748;28;20045;-67
2023/03/12 02:08:58;;;;;;;5.25;2.40;;;;;;;;;;4994176;28;20038;-67
2023/03/12 02:11:24;;;;;;;5.40;2.13;;;;;;;;;;4994258;28;20026;-67
2023/03/12 02:13:50;;;;;;;6.55;1.98;;;;;;;;;;4992918;28;20038;-67
2023/03/12 02:16:15;;;;;;;7.82;2.10;;;;;;;;;;4976652;28;20033;-67
2023/03/12 02:18:43;;;;;;;6.03;2.10;;;;;;;;;;4976043;28;20392;-67
2023/03/12 02:21:11;;;;;;;5.78;2.20;;;;;;;;;;4993709;28;20436;-66
2023/03/12 02:23:44;;;;;;;5.28;2.08;;;;;;;;;;4976128;28;20039;-67
2023/03/12 02:26:11;;;;;;;6.28;2.15;;;;;;;;;;4976191;28;20034;-67
2023/03/12 02:28:42;;;;;;;6.70;1.90;;;;;;;;;;4975160;28;20038;-68
2023/03/12 02:31:12;;;;;;;7.07;1.95;;;;;;;;;;4991908;28;20026;-66
2023/03/12 02:33:38;;;;;;;5.15;2.00;;;;;;;;;;4975713;28;20366;-66
2023/03/12 02:36:04;;;;;;;4.03;1.70;;;;;;;;;;4993212;28;20033;-67
2023/03/12 02:38:35;;;;;;;3.83;2.00;;;;;;;;;;4975269;28;20120;-67
2023/03/12 02:41:15;;;;;;;5.07;1.70;;;;;;;;;;4975829;28;20093;-67
2023/03/12 02:43:45;;;;;;;8.05;1.80;;;;;;;;;;4990729;28;20041;-68
2023/03/12 02:46:11;;;;;;;4.30;1.75;;;;;;;;;;5005916;28;20052;-66
2023/03/12 02:48:37;;;;;;;6.88;1.90;;;;;;;;;;4992588;28;20092;-67
2023/03/12 02:51:03;;;;;;;4.05;1.63;;;;;;;;;;4976085;28;20026;-67
2023/03/12 02:53:29;;;;;;;4.07;2.20;;;;;;;;;;4991806;28;20511;-67
2023/03/12 02:55:55;;;;;;;5.53;1.88;;;;;;;;;;4975425;28;20061;-67
2023/03/12 02:58:21;;;;;;;3.17;1.50;;;;;;;;;;4975057;28;20038;-67
2023/03/12 03:00:47;;;;;;;15.32;3.33;;;;;;;;;;4975461;28;20062;-67
2023/03/12 03:03:14;;;;;;;4.70;1.55;;;;;;;;;;4991629;28;20043;-67
2023/03/12 03:05:39;;;;;;;3.38;1.80;;;;;;;;;;4975557;28;20034;-66
2023/03/12 03:08:06;;;;;;;4.82;1.67;;;;;;;;;;4974916;28;20039;-68
2023/03/12 03:10:32;;;;;;;6.65;1.67;;;;;;;;;;4993524;28;20433;-68
2023/03/12 03:12:57;;;;;;;4.38;1.70;;;;;;;;;;4975475;28;20202;-67
2023/03/12 03:15:23;;;;;;;4.45;1.67;;;;;;;;;;4975132;28;20034;-67
2023/03/12 03:17:49;;;;;;;2.90;1.50;;;;;;;;;;4959814;28;20400;-67
2023/03/12 03:20:15;;;;;;;5.95;2.03;;;;;;;;;;4975504;28;20026;-67
2023/03/12 03:22:40;;;;;;;2.83;1.30;;;;;;;;;;4992549;28;20125;-67
2023/03/12 03:25:08;;;;;;;4.38;1.65;;;;;;;;;;4974777;28;20025;-67
2023/03/12 03:27:34;;;;;;;4.80;1.30;;;;;;;;;;4974499;28;20093;-67
2023/03/12 03:30:01;;;;;;;2.47;1.10;;;;;;;;;;4992798;28;20030;-66
2023/03/12 03:32:29;;;;;;;3.13;1.00;;;;;;;;;;5007490;28;20373;-66
2023/03/12 03:34:55;;;;;;;1.95;0.88;;;;;;;;;;4971541;28;20030;-67
2023/03/12 03:37:21;;;;;;;1.98;0.90;;;;;;;;;;4988494;28;20054;-67
2023/03/12 03:39:46;;;;;;;3.45;0.90;;;;;;;;;;4974842;28;20034;-67
2023/03/12 03:42:12;;;;;;;1.77;0.80;;;;;;;;;;4974873;28;20034;-66
2023/03/12 03:44:38;;;;;;;3.65;1.10;;;;;;;;;;4974167;28;20392;-67
2023/03/12 03:47:04;;;;;;;2.72;1.13;;;;;;;;;;4974781;28;20069;-67
2023/03/12 03:49:30;;;;;;;1.95;0.90;;;;;;;;;;4974499;28;20101;-67
2023/03/12 03:51:56;;;;;;;1.95;1.02;;;;;;;;;;4975067;28;20267;-67
2023/03/12 03:54:29;;;;;;;1.77;1.00;;;;;;;;;;4974775;28;20033;-67
2023/03/12 03:56:56;;;;;;;1.33;1.00;;;;;;;;;;4990873;28;20034;-67
2023/03/12 03:59:21;;;;;;;3.85;1.08;;;;;;;;;;4974436;28;20165;-66
2023/03/12 04:01:47;;;;;;;2.03;0.98;;;;;;;;;;4974706;28;20053;-66
2023/03/12 04:04:13;;;;;;;2.00;1.08;;;;;;;;;;4974520;28;20396;-66
2023/03/12 04:06:39;;;;;;;1.90;1.05;;;;;;;;;;4974497;28;20034;-67
2023/03/12 04:09:05;;;;;;;2.22;1.20;;;;;;;;;;4971751;28;20069;-66
2023/03/12 04:11:32;;;;;;;2.30;1.33;;;;;;;;;;4972458;28;20089;-67
2023/03/12 04:13:59;;;;;;;1.30;0.80;;;;;;;;;;4981593;28;20066;-67
2023/03/12 04:16:28;;;;;;;4.22;0.80;;;;;;;;;;4977870;28;20033;-67
2023/03/12 04:18:54;;;;;;;1.50;0.70;;;;;;;;;;4975920;28;20030;-67
2023/03/12 04:21:21;;;;;;;1.75;1.00;;;;;;;;;;4968816;28;20034;-67
2023/03/12 04:23:48;;;;;;;3.35;1.13;;;;;;;;;;4972709;28;20031;-66
2023/03/12 04:26:16;;;;;;;1.63;1.00;;;;;;;;;;4954986;28;20099;-67
2023/03/12 04:28:42;;;;;;;1.67;0.90;;;;;;;;;;4973905;28;20038;-67
2023/03/12 04:31:10;;;;;;;8.93;1.17;;;;;;;;;;4974759;28;20029;-68
2023/03/12 04:33:45;;;;;;;1.50;1.13;;;;;;;;;;4991824;28;20038;-67
2023/03/12 04:36:12;;;;;;;2.92;1.40;;;;;;;;;;4993692;28;20049;-67
2023/03/12 04:38:40;;;;;;;5.45;1.05;;;;;;;;;;4973148;28;20109;-67
2023/03/12 04:41:10;;;;;;;3.15;1.48;;;;;;;;;;4989804;28;20058;-67
2023/03/12 04:43:39;;;;;;;5.85;0.98;;;;;;;;;;4974471;28;20117;-67
2023/03/12 04:46:06;;;;;;;2.25;1.00;;;;;;;;;;4974432;28;20110;-67
2023/03/12 04:48:33;;;;;;;2.72;1.30;;;;;;;;;;4989623;28;20133;-67
2023/03/12 04:51:00;;;;;;;3.50;1.40;;;;;;;;;;4973830;28;20038;-67
2023/03/12 04:53:26;;;;;;;3.95;1.17;;;;;;;;;;4973529;28;20515;-67
2023/03/12 04:55:52;;;;;;;2.15;1.20;;;;;;;;;;4976894;28;20031;-68
2023/03/12 04:58:19;;;;;;;3.85;1.30;;;;;;;;;;4977488;28;20037;-67
2023/03/12 05:00:46;;;;;;;2.80;1.50;;;;;;;;;;4978779;28;20473;-67
2023/03/12 05:03:12;;;;;;;3.63;1.40;;;;;;;;;;4994481;28;20039;-66
2023/03/12 05:05:37;;;;;;;4.60;1.73;;;;;;;;;;4995779;28;20133;-67
2023/03/12 05:08:04;;;;;;;4.13;1.30;;;;;;;;;;4995342;28;20109;-67
2023/03/12 05:10:32;;;;;;;2.95;1.20;;;;;;;;;;4962218;28;20105;-67
2023/03/12 05:12:58;;;;;;;4.82;1.40;;;;;;;;;;4961737;28;20060;-67
2023/03/12 05:15:25;;;;;;;4.13;1.05;;;;;;;;;;4977547;28;20054;-66
2023/03/12 05:17:50;;;;;;;3.33;1.02;;;;;;;;;;4977481;28;20034;-66
2023/03/12 05:20:16;;;;;;;5.70;1.10;;;;;;;;;;4977614;28;20032;-67
2023/03/12 05:22:44;;;;;;;2.65;1.02;;;;;;;;;;4993968;28;20034;-68
2023/03/12 05:25:10;;;;;;;5.25;1.30;;;;;;;;;;4977875;28;20026;-67
2023/03/12 05:27:37;;;;;;;4.15;1.77;;;;;;;;;;4977585;28;20094;-66
2023/03/12 05:30:04;;;;;;;2.55;1.10;;;;;;;;;;4977448;28;20121;-67
2023/03/12 05:32:30;;;;;;;2.85;0.95;;;;;;;;;;4977335;28;20043;-71
2023/03/12 05:34:56;;;;;;;2.05;1.42;;;;;;;;;;4977096;28;20030;-70
2023/03/12 05:37:22;;;;;;;2.40;1.50;;;;;;;;;;4976974;28;20034;-71
2023/03/12 05:39:49;;;;;;;3.83;1.40;;;;;;;;;;4977329;28;20420;-71
2023/03/12 05:42:16;;;;;;;2.83;1.50;;;;;;;;;;4977026;28;20085;-71
2023/03/12 05:44:42;;;;;;;7.88;2.67;;;;;;;;;;4977040;28;20038;-70
2023/03/12 05:47:11;;;;;;;8.23;4.15;;;;;;;;;;4993169;28;20045;-71
2023/03/12 05:49:39;;;;;;;4.90;2.20;;;;;;;;;;4976604;28;20383;-71
2023/03/12 05:52:05;;;;;;;6.53;2.50;;;;;;;;;;4992560;28;20035;-69
2023/03/12 05:54:31;;;;;;;5.22;2.75;;;;;;;;;;4976656;28;20028;-70
2023/03/12 05:56:57;;;;;;;4.93;2.45;;;;;;;;;;4994219;28;20117;-70
2023/03/12 05:59:25;;;;;;;4.35;2.17;;;;;;;;;;4975902;28;20019;-70
2023/03/12 06:01:52;;;;;;;3.83;2.00;;;;;;;;;;4976179;28;20133;-70
2023/03/12 06:04:18;;;;;;;6.43;2.42;;;;;;;;;;4976725;28;20448;-69
2023/03/12 06:06:44;;;;;;;6.97;2.53;;;;;;;;;;4992292;28;20034;-71
2023/03/12 06:09:10;;;;;;;4.45;2.05;;;;;;;;;;4960662;28;20028;-71
2023/03/12 06:11:36;;;;;;;4.78;2.35;;;;;;;;;;4976232;28;20042;-70
2023/03/12 06:14:03;;;;;;;2.95;1.75;;;;;;;;;;4975492;28;20030;-70
2023/03/12 06:16:29;;;;;;;3.45;1.63;;;;;;;;;;4976950;28;20054;-69
2023/03/12 06:19:02;;;;;;;3.95;1.50;;;;;;;;;;4976011;28;20428;-71
2023/03/12 06:21:30;;;;;;;5.47;1.27;;;;;;;;;;4975639;28;20037;-70
2023/03/12 06:23:58;;;;;;;6.22;1.40;;;;;;;;;;4976123;28;20387;-70
2023/03/12 06:26:29;;;;;;;1.70;1.02;;;;;;;;;;4974205;28;20030;-71
2023/03/12 06:28:54;;;;;;;2.22;1.20;;;;;;;;;;4992950;28;20444;-70
2023/03/12 06:31:21;;;;;;;2.63;1.08;;;;;;;;;;4982578;28;20025;-71
2023/03/12 06:33:47;;;;;;;2.80;1.20;;;;;;;;;;4993502;28;20392;-69
2023/03/12 06:36:13;;;;;;;2.65;1.00;;;;;;;;;;4974232;28;20025;-70
2023/03/12 06:38:41;;;;;;;5.45;1.30;;;;;;;;;;4990516;28;20129;-71
2023/03/12 06:41:12;;;;;;;3.28;1.10;;;;;;;;;;4992671;28;20053;-70
2023/03/12 06:43:39;;;;;;;3.38;1.40;;;;;;;;;;4974211;28;20034;-70
2023/03/12 06:46:07;;;;;;;4.20;1.50;;;;;;;;;;4992548;28;20018;-70
2023/03/12 06:48:35;;;;;;;5.13;1.35;;;;;;;;;;4993089;28;20069;-70
2023/03/12 06:51:04;;;;;;;6.00;1.55;;;;;;;;;;4992674;28;20018;-70
2023/03/12 06:53:31;;;;;;;2.88;1.20;;;;;;;;;;4991828;28;20045;-70
2023/03/12 06:55:56;;;;;;;5.18;1.10;;;;;;;;;;4976902;28;20029;-70
2023/03/12 06:58:23;;;;;;;2.33;1.00;;;;;;;;;;4992511;28;20400;-70
2023/03/12 07:00:49;;;;;;;4.72;1.27;;;;;;;;;;4988119;28;20022;-70
2023/03/12 07:03:15;;;;;;;2.38;1.35;;;;;;;;;;4988716;28;20464;-70
2023/03/12 07:05:44;;;;;;;4.90;1.10;;;;;;;;;;4991906;28;20061;-70
2023/03/12 07:08:11;;;;;;;2.97;1.10;;;;;;;;;;4975471;28;20063;-71
2023/03/12 07:10:37;;;;;;;3.47;1.20;;;;;;;;;;4992311;28;20030;-70
2023/03/12 07:13:02;;;;;;;2.75;1.13;;;;;;;;;;4992500;28;20034;-70
2023/03/12 07:15:28;;;;;;;5.90;1.58;;;;;;;;;;4992362;28;20054;-69
2023/03/12 07:17:54;;;;;;;4.60;1.65;;;;;;;;;;4991652;28;20062;-69
2023/03/12 07:20:20;;;;;;;3.42;1.42;;;;;;;;;;4992440;28;20041;-71
2023/03/12 07:22:45;;;;;;;3.03;1.10;;;;;;;;;;4991159;28;20050;-71
2023/03/12 07:25:11;;;;;;;6.03;1.17;;;;;;;;;;4992144;28;20093;-71
2023/03/12 07:27:37;;;;;;;3.72;1.20;;;;;;;;;;4992219;28;20098;-72
2023/03/12 07:30:03;;;;;;;3.30;1.05;;;;;;;;;;4989659;28;20112;-69
2023/03/12 07:32:33;;;;;;;4.30;1.20;;;;;;;;;;4991349;28;20038;-69
2023/03/12 07:34:59;;;;;;;3.33;1.20;;;;;;;;;;4989610;28;20093;-70
2023/03/12 07:37:25;;;;;;;2.95;1.10;;;;;;;;;;4991601;28;20492;-70
2023/03/12 07:39:52;;;;;;;1.45;0.82;;;;;;;;;;4974286;28;20177;-69
2023/03/12 07:42:18;;;;;;;2.58;1.40;;;;;;;;;;4991755;28;20077;-70
2023/03/12 07:44:46;;;;;;;1.75;0.90;;;;;;;;;;4973916;28;20019;-70
2023/03/12 07:47:11;;;;;;;3.30;1.45;;;;;;;;;;4991580;28;20134;-70
2023/03/12 07:49:40;;;;;;;3.83;1.20;;;;;;;;;;4991656;28;20077;-70
2023/03/12 07:52:10;;;;;;;5.35;1.13;;;;;;;;;;4991686;28;20038;-68
2023/03/12 07:54:37;;;;;;;3.10;1.20;;;;;;;;;;4989680;28;20089;-68
2023/03/12 07:57:03;;;;;;;2.22;1.20;;;;;;;;;;4991048;28;20018;-70
2023/03/12 07:59:29;;;;;;;3.38;1.27;;;;;;;;;;4991753;28;20432;-71
2023/03/12 08:01:54;;;;;;;3.25;1.30;;;;;;;;;;4974575;28;20037;-69
2023/03/12 08:04:20;;;;;;;2.70;1.15;;;;;;;;;;4989347;28;20034;-69
2023/03/12 08:06:46;;;;;;;5.90;1.20;;;;;;;;;;4990013;28;20034;-71
2023/03/12 08:09:12;;;;;;;3.22;0.93;;;;;;;;;;4989396;28;20485;-68
2023/03/12 08:11:37;;;;;;;2.90;1.33;;;;;;;;;;4989554;28;20105;-70
2023/03/12 08:14:04;;;;;;;2.10;0.93;;;;;;;;;;4973897;28;20170;-69
2023/03/12 08:16:29;;;;;;;1.95;0.95;;;;;;;;;;4973017;28;20078;-70
2023/03/12 08:18:55;;;;;;;3.60;1.20;;;;;;;;;;4990169;28;20030;-70
2023/03/12 08:21:21;;;;;;;5.57;1.40;;;;;;;;;;4991079;28;20037;-71
2023/03/12 08:23:47;;;;;;;2.65;1.17;;;;;;;;;;4991060;28;20508;-70
2023/03/12 08:26:13;;;;;;;4.25;1.10;;;;;;;;;;4990710;28;20057;-69
2023/03/12 08:28:39;;;;;;;6.97;1.30;;;;;;;;;;4991290;28;20600;-71
2023/03/12 08:31:05;;;;;;;3.13;1.17;;;;;;;;;;4975099;28;20429;-71
2023/03/12 08:33:31;;;;;;;1.63;0.90;;;;;;;;;;4994820;28;20357;-71
2023/03/12 08:35:57;;;;;;;3.95;0.80;;;;;;;;;;4992567;28;20030;-71
2023/03/12 08:38:22;;;;;;;1.75;0.93;;;;;;;;;;4994694;28;20042;-71
2023/03/12 08:40:59;;;;;;;3.30;0.90;;;;;;;;;;4966288;28;20033;-70
2023/03/12 08:43:26;;;;;;;3.17;1.02;;;;;;;;;;4993448;28;20572;-71
2023/03/12 08:46:00;;;;;;;2.80;1.02;;;;;;;;;;4975994;28;20026;-71
2023/03/12 08:48:28;;;;;;;1.90;0.85;;;;;;;;;;4983022;28;20053;-71
2023/03/12 08:50:55;;;;;;;6.47;1.20;;;;;;;;;;4994949;28;20378;-68
2023/03/12 08:53:22;;;;;;;2.10;1.00;;;;;;;;;;4995527;28;20026;-69
2023/03/12 08:55:48;;;;;;;2.50;1.00;;;;;;;;;;4994795;28;20030;-70
2023/03/12 08:58:13;;;;;;;2.13;1.00;;;;;;;;;;4991715;28;20419;-68
2023/03/12 09:00:39;;;;;;;1.73;0.90;;;;;;;;;;4993838;28;20026;-68
2023/03/12 09:03:05;;;;;;;2.22;0.93;;;;;;;;;;4999628;28;20026;-69
2023/03/12 09:05:31;;;;;;;1.90;1.00;;;;;;;;;;4994696;28;20400;-71
2023/03/12 09:07:57;;;;;;;3.35;1.05;;;;;;;;;;4994670;28;20037;-68
2023/03/12 09:10:24;;;;;;;3.03;1.05;;;;;;;;;;5007106;28;20468;-69
2023/03/12 09:12:50;;;;;;;2.45;0.75;;;;;;;;;;4992393;28;20076;-70
2023/03/12 09:15:16;;;;;;;2.63;1.23;;;;;;;;;;4992302;28;20074;-68
2023/03/12 09:17:41;;;;;;;3.03;1.20;;;;;;;;;;4994062;28;20093;-67
2023/03/12 09:20:08;;;;;;;1.80;1.10;;;;;;;;;;4993806;28;20543;-70
2023/03/12 09:22:36;;;;;;;3.47;1.40;;;;;;;;;;4992935;28;20037;-69
2023/03/12 09:25:03;;;;;;;3.20;1.40;;;;;;;;;;4993707;28;20025;-69
2023/03/12 09:27:29;;;;;;;11.85;7.93;;;;;;;;;;4993759;28;20041;-70
2023/03/12 09:29:54;;;;;;;3.20;1.70;;;;;;;;;;4995427;28;20026;-71
2023/03/12 09:32:20;;;;;;;2.42;1.10;;;;;;;;;;4995240;28;20054;-70
2023/03/12 09:34:46;;;;;;;3.50;1.20;;;;;;;;;;4995064;28;20030;-69
2023/03/12 09:37:12;;;;;;;4.97;1.30;;;;;;;;;;4994674;28;20109;-70
2023/03/12 09:39:37;;;;;;;2.88;1.25;;;;;;;;;;4994633;28;20245;-70
2023/03/12 09:42:10;;;;;;;3.47;1.33;;;;;;;;;;4975913;28;20515;-70
2023/03/12 09:44:41;;;;;;;2.65;1.52;;;;;;;;;;4976913;28;20043;-70
2023/03/12 09:47:36;;;;;;;7.40;1.45;;;;;;;;;;4994283;28;20038;-71
2023/03/12 09:50:20;;;;;;;4.85;1.95;;;;;;;;;;4992935;28;20101;-70
2023/03/12 09:53:00;;;;;;;2.67;1.40;;;;;;;;;;4993986;28;20034;-70
2023/03/12 09:55:34;;;;;;;3.58;1.50;;;;;;;;;;4978126;28;20034;-70
2023/03/12 09:57:59;;;;;;;2.63;1.50;;;;;;;;;;4994085;28;20042;-72
2023/03/12 10:00:34;;;;;;;4.38;1.67;;;;;;;;;;4994380;28;20026;-70
2023/03/12 10:03:30;;;;;;;2.20;1.45;;;;;;;;;;4993549;28;20027;-69
2023/03/12 10:06:18;;;;;;;6.93;1.92;;;;;;;;;;4993177;28;20377;-70
2023/03/12 10:09:00;;;;;;;2.67;1.60;;;;;;;;;;4993565;28;20034;-69
2023/03/12 10:11:59;;;;;;;3.97;1.58;;;;;;;;;;4993675;28;20169;-70
2023/03/12 10:14:37;;;;;;;3.90;1.20;;;;;;;;;;4993232;28;20034;-69
2023/03/12 10:17:14;;;;;;;4.18;1.50;;;;;;;;;;4993985;28;20049;-70
2023/03/12 10:20:15;;;;;;;5.82;2.08;;;;;;;;;;4993521;28;20034;-69
2023/03/12 10:23:08;;;;;;;5.35;1.67;;;;;;;;;;4980097;28;20105;-70
2023/03/12 10:25:56;;;;;;;2.40;1.60;;;;;;;;;;4992684;28;20404;-70
2023/03/12 10:28:31;;;;;;;2.10;1.30;;;;;;;;;;4993764;28;20109;-71
2023/03/12 10:31:02;;;;;;;4.55;1.73;;;;;;;;;;4966556;28;20031;-70
2023/03/12 10:33:57;;;;;;;5.05;2.10;;;;;;;;;;4990540;28;20739;-70
2023/03/12 10:36:44;;;;;;;4.80;2.00;;;;;;;;;;4985520;28;20476;-70
2023/03/12 10:39:16;;;;;;;3.97;2.10;;;;;;;;;;4993563;28;20045;-69
2023/03/12 10:41:45;;;;;;;4.38;1.70;;;;;;;;;;4992735;28;20504;-70
2023/03/12 10:44:18;;;;;;;4.75;1.50;;;;;;;;;;4991880;28;20026;-70
2023/03/12 10:46:58;;;;;;;4.65;2.03;;;;;;;;;;4991668;28;20038;-71
2023/03/12 10:49:25;;;;;;;6.05;2.85;;;;;;;;;;4991879;28;20097;-70
2023/03/12 10:51:54;;;;;;;5.13;1.90;;;;;;;;;;4993130;28;20026;-70
2023/03/12 10:54:22;;;;;;;3.38;1.38;;;;;;;;;;4991513;28;20050;-70
2023/03/12 10:56:51;;;;;;;1.77;1.25;;;;;;;;;;4993216;28;20061;-70
2023/03/12 10:59:21;;;;;;;3.17;1.60;;;;;;;;;;4993454;28;20105;-70
2023/03/12 11:01:51;;;;;;;5.10;2.03;;;;;;;;;;4993161;28;20460;-70
2023/03/12 11:04:37;;;;;;;4.13;1.83;;;;;;;;;;4993045;28;20066;-70
2023/03/12 11:07:26;;;;;;;3.33;1.80;;;;;;;;;;4992258;28;20137;-70
2023/03/12 11:10:07;;;;;;;6.18;1.90;;;;;;;;;;4993361;28;20061;-70
2023/03/12 11:12:35;;;;;;;4.80;1.80;;;;;;;;;;4992959;28;20401;-71
2023/03/12 11:15:40;;;;;;;4.60;2.30;;;;;;;;;;4992654;28;20120;-70
2023/03/12 11:18:24;;;;;;;9.35;2.60;;;;;;;;;;4913340;29;20032;-69
2023/03/12 11:20:51;;;;;;;;;;;;;;;;;;4988756;28;20053;-69
2023/03/12 11:23:25;;;;;;;5.13;2.33;;;;;;;;;;4992509;28;20423;-71
2023/03/12 11:25:54;;;;;;;4.07;2.33;;;;;;;;;;4991384;28;20037;-71
2023/03/12 11:28:24;;;;;;;4.60;2.20;;;;;;;;;;4992433;28;20026;-71
2023/03/12 11:30:52;;;;;;;4.72;2.63;;;;;;;;;;4992594;28;20041;-70
2023/03/12 11:33:18;;;;;;;4.10;2.38;;;;;;;;;;4975196;28;20105;-70
2023/03/12 11:35:57;;;;;;;3.50;1.88;;;;;;;;;;4992557;28;20034;-72
2023/03/12 11:38:54;;;;;;;3.88;2.00;;;;;;;;;;4992575;28;20035;-71
2023/03/12 11:41:50;;;;;;;3.70;2.30;;;;;;;;;;4975179;28;20038;-71
2023/03/12 11:44:22;;;;;;;4.45;2.00;;;;;;;;;;4992190;28;20030;-71
2023/03/12 11:47:09;;;;;;;4.72;1.83;;;;;;;;;;4992205;28;20038;-70
2023/03/12 11:50:21;;;;;;;6.15;2.25;;;;;;;;;;4992098;28;20117;-70
2023/03/12 11:53:31;;;;;;;5.28;2.47;;;;;;;;;;4932026;29;20044;-70
2023/03/12 11:56:17;;;;;;;6.65;2.42;;;;;;;;;;4969447;28;20114;-71
2023/03/12 11:59:24;;;;;;;7.93;2.63;;;;;;;;;;4992309;28;20157;-71
2023/03/12 12:02:17;;;;;;;6.72;2.60;;;;;;;;;;4989594;28;20182;-73
2023/03/12 12:05:10;;;;;;;5.47;2.83;;;;;;;;;;4993038;28;20039;-70
2023/03/12 12:07:51;;;;;;;4.77;2.47;;;;;;;;;;4995125;28;20034;-70
2023/03/12 12:10:27;;;;;;;7.47;3.15;;;;;;;;;;4996406;28;20042;-71
2023/03/12 12:13:23;;;;;;;4.63;2.70;;;;;;;;;;4996310;28;20038;-69
2023/03/12 12:15:55;;;;;;;3.38;2.30;;;;;;;;;;4995955;28;20049;-70
2023/03/12 12:18:52;;;;;;;5.55;2.08;;;;;;;;;;4995771;28;20457;-71
2023/03/12 12:21:46;;;;;;;5.40;2.28;;;;;;;;;;4995687;28;20133;-70
2023/03/12 12:24:29;;;;;;;;;;;;;;;;;;4996271;28;20030;-69
2023/03/12 12:27:06;;;;;;;3.00;1.75;;;;;;;;;;4995410;28;19941;-69
2023/03/12 12:29:51;;;;;;;3.78;2.20;;;;;;;;;;4992228;28;20038;-70
2023/03/12 12:32:36;;;;;;;6.40;2.78;;;;;;;;;;4995156;28;20062;-69
2023/03/12 12:35:08;;;;;;;8.40;3.80;;;;;;;;;;4995101;28;20038;-71
2023/03/12 12:37:51;;;;;;;7.15;3.13;;;;;;;;;;4995490;28;20034;-70
2023/03/12 12:40:44;;;;;;;6.55;2.60;;;;;;;;;;4995566;28;20038;-69
2023/03/12 12:43:28;;;;;;;7.13;2.00;;;;;;;;;;4995541;28;20053;-71
2023/03/12 12:45:59;;;;;;;6.15;2.25;;;;;;;;;;4978453;28;20092;-71
2023/03/12 12:49:00;;;;;;;4.43;2.30;;;;;;;;;;5015416;28;20067;-70
2023/03/12 12:51:33;;;;;;;6.05;2.17;;;;;;;;;;5000534;28;20052;-69
2023/03/12 12:54:17;;;;;;;;;;;;;;;;;;5015510;28;20091;-69
2023/03/12 12:57:19;;;;;;;4.18;2.15;;;;;;;;;;5015081;28;19960;-70
2023/03/12 13:00:06;;;;;;;3.78;2.28;;;;;;;;;;4973261;28;20057;-69
2023/03/12 13:02:36;;;;;;;6.63;2.03;;;;;;;;;;5015030;28;20092;-70
2023/03/12 13:05:01;;;;;;;3.92;1.70;;;;;;;;;;5014873;28;20038;-70
2023/03/12 13:07:29;;;;;;;4.85;2.20;;;;;;;;;;5014833;28;20223;-70
2023/03/12 13:09:57;;;;;;;5.07;2.33;;;;;;;;;;5014908;28;20393;-69
2023/03/12 13:12:49;;;;;;;4.65;2.10;;;;;;;;;;5014744;28;20040;-70
2023/03/12 13:15:30;;;;;;;5.72;2.00;;;;;;;;;;5014807;28;20137;-70
2023/03/12 13:18:08;;;;;;;3.95;2.22;;;;;;;;;;5014825;28;20060;-69
2023/03/12 13:20:43;;;;;;;5.03;2.45;;;;;;;;;;5014882;28;20054;-69
2023/03/12 13:23:35;;;;;;;3.13;1.88;;;;;;;;;;5014577;28;20034;-70
2023/03/12 13:26:19;;;;;;;3.40;2.10;;;;;;;;;;5014889;28;20034;-70
2023/03/12 13:28:52;;;;;;;4.55;2.20;;;;;;;;;;5014535;28;20046;-70
2023/03/12 13:31:27;;;;;;;5.10;2.80;;;;;;;;;;5014250;28;20041;-71
2023/03/12 13:33:57;;;;;;;4.75;2.50;;;;;;;;;;5014214;28;20049;-70
2023/03/12 13:36:32;;;;;;;3.97;2.20;;;;;;;;;;5014435;28;20044;-69
2023/03/12 13:38:59;;;;;;;6.25;2.28;;;;;;;;;;5014519;28;20037;-70
2023/03/12 13:41:48;;;;;;;3.88;2.65;;;;;;;;;;5014317;28;20022;-71
2023/03/12 13:44:27;;;;;;;3.78;2.55;;;;;;;;;;5014208;28;20091;-69
2023/03/12 13:47:21;;;;;;;8.35;3.55;;;;;;;;;;5014219;28;20041;-70
2023/03/12 13:50:26;;;;;;;5.57;2.45;;;;;;;;;;5014263;28;20060;-69
2023/03/12 13:53:18;;;;;;;9.60;3.75;;;;;;;;;;5009905;28;20085;-69
2023/03/12 13:55:48;;;;;;;5.97;2.78;;;;;;;;;;5013722;28;20091;-70
2023/03/12 13:58:22;;;;;;;5.65;2.60;;;;;;;;;;5013823;28;20030;-70
2023/03/12 14:00:57;;;;;;;6.82;2.50;;;;;;;;;;5013667;28;20104;-70
2023/03/12 14:03:48;;;;;;;4.88;2.65;;;;;;;;;;5014064;28;20480;-70
2023/03/12 14:06:20;;;;;;;7.18;3.00;;;;;;;;;;5013892;28;20080;-70
2023/03/12 14:09:04;;;;;;;4.88;2.97;;;;;;;;;;5013415;28;20046;-69
2023/03/12 14:11:49;;;;;;;6.72;3.30;;;;;;;;;;5013517;28;20045;-70
2023/03/12 14:14:18;;;;;;;6.68;3.58;;;;;;;;;;5013659;28;20050;-70
2023/03/12 14:16:50;;;;;;;4.40;2.20;;;;;;;;;;5013462;28;20095;-70
2023/03/12 14:19:21;;;;;;;3.45;1.63;;;;;;;;;;4996243;28;20121;-70
2023/03/12 14:21:48;;;;;;;4.03;2.00;;;;;;;;;;5013920;28;20042;-72
2023/03/12 14:24:26;;;;;;;8.48;2.88;;;;;;;;;;5013412;28;20037;-69
2023/03/12 14:26:53;;;;;;;5.07;2.00;;;;;;;;;;5014838;28;20041;-70
2023/03/12 14:29:49;;;;;;;5.53;2.30;;;;;;;;;;5013410;28;20033;-69
2023/03/12 14:32:21;;;;;;;4.63;2.53;;;;;;;;;;5012483;28;20050;-70
2023/03/12 14:34:57;;;;;;;5.95;2.85;;;;;;;;;;5013810;28;20133;-71
2023/03/12 14:37:31;;;;;;;4.80;2.30;;;;;;;;;;5013286;28;20538;-69
2023/03/12 14:40:01;;;;;;;6.40;2.67;;;;;;;;;;5013203;28;20113;-69
2023/03/12 14:42:32;;;;;;;7.65;2.90;;;;;;;;;;5013573;28;20416;-70
2023/03/12 14:45:00;;;;;;;8.02;2.80;;;;;;;;;;5013130;28;20117;-69
2023/03/12 14:47:26;;;;;;;12.48;5.75;;;;;;;;;;5013304;28;20084;-70
2023/03/12 14:49:54;;;;;;;5.57;2.80;;;;;;;;;;5013143;28;20038;-70
2023/03/12 14:52:23;;;;;;;13.27;5.95;;;;;;;;;;4997048;28;20057;-71
2023/03/12 14:54:54;;;;;;;13.57;6.10;;;;;;;;;;4993013;28;20476;-70
2023/03/12 14:57:23;;;;;;;7.85;4.43;;;;;;;;;;4985723;28;20031;-71
2023/03/12 14:59:54;;;;;;;8.65;3.33;;;;;;;;;;4992297;28;20034;-70
2023/03/12 15:02:21;;;;;;;5.55;2.92;;;;;;;;;;4993136;28;20604;-70
2023/03/12 15:04:48;;;;;;;7.93;3.08;;;;;;;;;;4992746;28;20050;-70
2023/03/12 15:07:18;;;;;;;3.28;2.22;;;;;;;;;;4987990;28;20026;-70